Time;durP1;ratioP1;P1;durP2;ratioP2;P2;SDS_P1;SDS_P2;PMS_P1;PMS_P2;Temp;Humidity;BMP_temperature;BMP_pressure;BME280_temperature;BME280_humidity;BME280_pressure;Samples;Min_cycle;Max_cycle;Signal;HPM_P1;HPM_P2
2024/01/17 00:00:09;;;;;;;64.40;31.27;;;0.90;98.80;;;0.53;62.83;94900.41;5120995;28;20850;-65
2024/01/17 00:02:36;;;;;;;60.27;27.20;;;0.90;99.00;;;0.55;62.98;94908.09;5118784;28;20691;-65
2024/01/17 00:05:04;;;;;;;58.67;27.30;;;0.90;99.00;;;0.56;62.74;94909.78;5119858;28;21031;-66
2024/01/17 00:07:33;;;;;;;53.53;24.97;;;0.90;99.10;;;0.57;63.09;94908.00;5119667;28;20455;-65
2024/01/17 00:10:00;;;;;;;56.67;25.87;;;1.00;99.30;;;0.59;63.67;94916.53;5118961;28;20458;-62
2024/01/17 00:12:28;;;;;;;51.90;24.43;;;0.90;99.10;;;0.59;63.50;94914.78;5122150;28;20453;-66
2024/01/17 00:14:55;;;;;;;56.13;24.27;;;1.00;99.20;;;0.59;63.08;94919.97;5119996;28;20444;-65
2024/01/17 00:17:22;;;;;;;51.20;25.90;;;1.00;99.20;;;0.60;63.01;94920.78;5122439;27;20510;-61
2024/01/17 00:19:50;;;;;;;51.10;24.83;;;1.00;99.40;;;0.59;63.10;94925.16;5125382;27;20456;-61
2024/01/17 00:22:18;;;;;;;44.57;21.37;;;1.00;99.10;;;0.59;64.00;94919.97;5123291;27;20485;-62
2024/01/17 00:24:49;;;;;;;48.37;21.87;;;1.00;99.20;;;0.60;62.67;94920.78;5124142;27;20475;-65
2024/01/17 00:27:18;;;;;;;47.70;22.20;;;1.00;99.10;;;0.61;62.36;94923.31;5122440;27;20822;-62
2024/01/17 00:29:46;;;;;;;42.93;22.07;;;1.00;99.30;;;0.62;62.43;94924.13;5124013;27;20452;-63
2024/01/17 00:32:15;;;;;;;40.47;21.50;;;1.00;99.20;;;0.63;63.20;94926.66;5121876;27;20461;-61
2024/01/17 00:34:43;;;;;;;43.17;20.40;;;1.00;99.10;;;0.66;63.81;94917.91;5120667;27;21162;-61
2024/01/17 00:37:11;;;;;;;34.60;17.60;;;1.00;99.20;;;0.68;63.25;94922.09;5123864;27;20460;-66
2024/01/17 00:39:38;;;;;;;46.73;20.50;;;1.10;99.30;;;0.70;62.88;94912.47;5121181;27;20628;-66
2024/01/17 00:42:07;;;;;;;38.30;19.90;;;1.10;99.40;;;0.73;63.28;94921.84;5123780;27;20491;-62
2024/01/17 00:44:38;;;;;;;43.70;19.47;;;1.10;99.40;;;0.75;63.48;94914.00;5121487;27;20449;-66
2024/01/17 00:47:06;;;;;;;42.57;18.90;;;1.10;99.40;;;0.79;63.16;94918.94;5120799;27;20461;-66
2024/01/17 00:49:33;;;;;;;48.23;22.07;;;1.20;99.40;;;0.81;63.99;94908.50;5124138;27;20444;-63
2024/01/17 00:52:01;;;;;;;41.10;21.47;;;1.20;99.40;;;0.85;63.11;94912.59;5120740;27;20909;-66
2024/01/17 00:54:28;;;;;;;43.63;21.00;;;1.20;99.30;;;0.85;63.65;94910.00;5124132;27;20485;-62
2024/01/17 00:56:55;;;;;;;44.63;22.83;;;1.20;99.20;;;0.86;63.75;94901.34;5121491;27;20488;-63
2024/01/17 00:59:25;;;;;;;51.30;24.03;;;1.20;99.20;;;0.86;62.60;94909.09;5124235;27;20448;-66
2024/01/17 01:01:52;;;;;;;48.20;23.53;;;1.20;99.10;;;0.85;62.98;94897.06;5125460;27;20472;-65
2024/01/17 01:04:19;;;;;;;58.80;24.93;;;1.20;99.20;;;0.83;63.30;94898.91;5130143;27;21011;-63
2024/01/17 01:06:47;;;;;;;61.70;25.37;;;1.20;99.10;;;0.79;62.75;94894.78;5122268;27;20465;-66
2024/01/17 01:09:15;;;;;;;51.43;25.57;;;1.20;99.00;;;0.77;62.67;94894.03;5125853;27;20440;-63
2024/01/17 01:11:43;;;;;;;50.37;24.70;;;1.10;99.10;;;0.75;62.32;94898.47;5125178;27;20521;-62
2024/01/17 01:14:10;;;;;;;45.77;23.93;;;1.10;99.30;;;0.75;63.41;94893.28;5123428;27;20589;-66
2024/01/17 01:16:40;;;;;;;43.47;23.03;;;1.10;99.30;;;0.75;62.86;94896.72;5125176;27;20455;-62
2024/01/17 01:19:08;;;;;;;53.67;25.30;;;1.10;99.50;;;0.75;62.77;94893.28;5120689;27;20453;-67
2024/01/17 01:21:35;;;;;;;43.97;22.47;;;1.10;99.30;;;0.77;63.47;94894.03;5124277;27;20482;-65
2024/01/17 01:24:03;;;;;;;72.77;27.40;;;1.10;99.30;;;0.80;62.80;94886.13;5120056;27;20579;-62
2024/01/17 01:26:31;;;;;;;48.93;22.90;;;1.20;99.30;;;0.80;63.43;94880.94;5124963;27;20503;-62
2024/01/17 01:28:58;;;;;;;39.10;19.90;;;1.10;99.40;;;0.81;62.48;94892.97;5123118;27;20453;-66
2024/01/17 01:31:25;;;;;;;38.67;19.20;;;1.10;99.20;;;0.81;62.82;94901.56;5120795;27;20499;-65
2024/01/17 01:33:54;;;;;;;28.20;16.30;;;1.10;99.10;;;0.81;63.37;94900.75;5125119;27;20892;-62
2024/01/17 01:36:22;;;;;;;23.93;13.07;;;1.20;99.00;;;0.78;62.99;94903.50;5119911;27;20469;-62
2024/01/17 01:38:50;;;;;;;27.00;12.50;;;1.20;98.90;;;0.80;62.51;94904.25;5122971;27;20452;-65
2024/01/17 01:41:17;;;;;;;22.70;12.50;;;1.10;98.90;;;0.80;62.72;94917.19;5119636;27;20480;-62
2024/01/17 01:43:45;;;;;;;25.23;12.70;;;1.20;98.90;;;0.79;62.52;94905.16;5123047;27;20579;-62
2024/01/17 01:46:15;;;;;;;24.33;13.57;;;1.10;98.80;;;0.79;62.52;94903.41;5119395;27;21285;-62
2024/01/17 01:48:43;;;;;;;26.40;13.80;;;1.20;98.90;;;0.79;62.77;94902.56;5119156;27;20991;-66
2024/01/17 01:51:12;;;;;;;33.00;13.43;;;1.10;99.10;;;0.81;62.88;94908.50;5119208;27;20493;-62
2024/01/17 01:53:40;;;;;;;24.90;12.00;;;1.10;98.80;;;0.81;63.55;94905.94;5119265;27;20441;-65
2024/01/17 01:56:08;;;;;;;30.03;13.57;;;1.20;98.90;;;0.82;63.15;94910.16;5119148;27;20473;-65
2024/01/17 01:58:36;;;;;;;24.47;13.83;;;1.20;98.90;;;0.83;62.01;94901.50;5122731;27;20459;-65
2024/01/17 02:01:04;;;;;;;21.87;13.37;;;1.20;98.90;;;0.85;63.41;94904.81;5119179;27;20464;-66
2024/01/17 02:03:31;;;;;;;28.63;14.53;;;1.20;98.90;;;0.86;62.65;94896.16;5122928;27;20872;-66
2024/01/17 02:05:59;;;;;;;30.03;14.73;;;1.20;98.90;;;0.87;62.25;94887.47;5118882;27;20472;-65
2024/01/17 02:08:28;;;;;;;26.10;13.50;;;1.20;98.90;;;0.88;62.19;94891.72;5119074;27;20961;-66
2024/01/17 02:10:56;;;;;;;24.67;13.67;;;1.20;98.90;;;0.88;62.97;94886.53;5119228;27;20462;-62
2024/01/17 02:13:23;;;;;;;27.90;15.20;;;1.20;98.80;;;0.89;62.83;94883.88;5122483;27;20459;-62
2024/01/17 02:15:50;;;;;;;30.13;13.93;;;1.20;98.90;;;0.89;62.25;94875.28;5118888;27;20472;-62
2024/01/17 02:18:19;;;;;;;34.50;14.67;;;1.20;98.90;;;0.88;63.08;94877.03;5123353;27;20475;-67
2024/01/17 02:20:46;;;;;;;30.73;15.77;;;1.30;98.90;;;0.86;62.43;94881.44;5121258;27;20495;-66
2024/01/17 02:23:24;;;;;;;30.17;15.13;;;1.20;98.90;;;0.86;62.83;94875.44;5125271;27;20870;-62
2024/01/17 02:25:54;;;;;;;34.73;18.10;;;1.20;98.90;;;0.84;62.49;94867.75;5123783;27;20481;-62
2024/01/17 02:28:21;;;;;;;29.40;15.80;;;1.20;98.90;;;0.82;63.07;94873.91;5124068;27;20498;-62
2024/01/17 02:30:48;;;;;;;40.47;16.90;;;1.20;98.90;;;0.78;62.40;94868.06;5121252;27;20469;-62
2024/01/17 02:33:16;;;;;;;35.00;17.27;;;1.20;98.90;;;0.74;61.87;94863.13;5120888;27;20449;-62
2024/01/17 02:35:43;;;;;;;36.87;18.60;;;1.10;98.80;;;0.70;62.91;94868.47;5120154;27;20469;-61
2024/01/17 02:38:10;;;;;;;33.83;18.40;;;1.10;99.20;;;0.68;63.26;94867.72;5120616;27;20780;-62
2024/01/17 02:40:38;;;;;;;40.73;20.00;;;1.10;99.20;;;0.64;64.52;94861.03;5119505;27;20461;-66
2024/01/17 02:43:07;;;;;;;43.47;20.40;;;1.10;99.70;;;0.65;63.95;94864.44;5120386;27;20533;-62
2024/01/17 02:45:34;;;;;;;38.33;18.77;;;1.10;99.70;;;0.67;64.14;94870.41;5119621;27;20471;-62
2024/01/17 02:48:02;;;;;;;34.80;19.23;;;1.00;99.60;;;0.69;64.05;94861.63;5120737;27;20471;-65
2024/01/17 02:50:30;;;;;;;42.07;20.77;;;1.10;99.70;;;0.74;62.83;94865.72;5119738;27;20583;-61
2024/01/17 02:52:57;;;;;;;35.03;17.57;;;1.10;99.80;;;0.80;nan;94868.00;5120435;27;20459;-62
2024/01/17 02:55:24;;;;;;;40.23;17.80;;;1.10;99.70;;;0.85;63.30;94873.75;5119478;27;20469;-63
2024/01/17 02:57:52;;;;;;;36.20;19.07;;;1.20;99.70;;;0.89;62.75;94870.09;5120619;27;20524;-62
2024/01/17 03:00:21;;;;;;;40.67;18.67;;;1.20;99.70;;;0.93;62.97;94866.44;5119082;27;20471;-66
2024/01/17 03:02:49;;;;;;;35.87;18.47;;;1.30;99.80;;;0.99;64.06;94870.44;5120462;28;20444;-63
2024/01/17 03:05:17;;;;;;;39.53;20.20;;;1.30;99.80;;;1.01;63.77;94868.63;5120400;28;20464;-61
2024/01/17 03:07:44;;;;;;;40.27;20.70;;;1.30;99.90;;;1.03;63.09;94857.25;5118705;28;20499;-62
2024/01/17 03:10:13;;;;;;;36.57;18.07;;;1.40;99.80;;;1.08;62.98;94875.13;5120720;28;20495;-66
2024/01/17 03:12:41;;;;;;;40.40;19.50;;;1.40;99.90;;;1.13;63.84;94877.47;5120182;28;20456;-62
2024/01/17 03:15:10;;;;;;;41.23;19.50;;;1.50;99.90;;;1.16;63.79;94866.94;5123337;28;20990;-61
2024/01/17 03:17:39;;;;;;;34.37;18.13;;;1.50;99.80;;;1.20;63.89;94873.63;5119995;28;20528;-62
2024/01/17 03:20:10;;;;;;;47.17;19.83;;;1.50;99.70;;;1.24;62.87;94885.50;5120348;28;20468;-62
2024/01/17 03:22:39;;;;;;;28.90;16.77;;;1.60;99.70;;;1.28;63.54;94879.22;5120311;28;20524;-62
2024/01/17 03:25:08;;;;;;;30.70;18.60;;;1.60;99.60;;;1.30;62.83;94869.63;5119676;28;20475;-62
2024/01/17 03:27:36;;;;;;;27.60;16.03;;;1.60;99.50;;;1.30;62.50;94858.41;5121045;28;20462;-63
2024/01/17 03:30:04;;;;;;;33.63;17.87;;;1.60;99.70;;;1.31;63.06;94860.09;5120261;28;20464;-62
2024/01/17 03:32:31;;;;;;;33.60;15.87;;;1.60;99.40;;;1.31;62.63;94866.09;5121113;28;20452;-62
2024/01/17 03:35:00;;;;;;;47.80;25.53;;;1.60;99.40;;;1.32;62.96;94860.00;5118895;28;21019;-65
2024/01/17 03:37:28;;;;;;;39.63;17.27;;;1.60;99.40;;;1.32;62.19;94856.59;5120941;28;20786;-61
2024/01/17 03:39:55;;;;;;;40.87;21.27;;;1.60;99.30;;;1.31;62.82;94855.75;5119216;28;20453;-67
2024/01/17 03:42:22;;;;;;;28.97;16.93;;;1.70;99.40;;;1.28;62.70;94860.28;5120740;28;20455;-65
2024/01/17 03:44:50;;;;;;;46.63;23.20;;;1.60;99.10;;;1.25;63.51;94856.94;5118553;28;20692;-62
2024/01/17 03:47:17;;;;;;;36.20;17.73;;;1.60;99.10;;;1.23;62.10;94860.53;5120129;28;20532;-66
2024/01/17 03:49:45;;;;;;;32.63;17.87;;;1.60;99.10;;;1.21;63.21;94878.72;5119197;28;20501;-62
2024/01/17 03:52:14;;;;;;;43.50;23.00;;;1.60;99.10;;;1.16;63.23;94877.31;5122519;27;20471;-66
2024/01/17 03:54:42;;;;;;;28.13;16.47;;;1.50;99.00;;;1.13;62.37;94882.66;5125623;27;20452;-66
2024/01/17 03:57:09;;;;;;;32.43;17.30;;;1.50;99.00;;;1.07;63.43;94895.03;5127173;27;20483;-66
2024/01/17 03:59:36;;;;;;;23.20;13.70;;;1.40;99.00;;;1.04;62.63;94892.59;5123012;27;20455;-62
2024/01/17 04:02:04;;;;;;;24.70;13.80;;;1.40;99.20;;;1.01;62.69;94884.16;5124504;27;20468;-62
2024/01/17 04:04:32;;;;;;;24.23;14.80;;;1.40;99.10;;;0.98;62.20;94895.50;5124129;27;20802;-67
2024/01/17 04:06:59;;;;;;;24.00;13.93;;;1.30;99.30;;;0.93;63.15;94892.34;5124371;27;20476;-65
2024/01/17 04:09:28;;;;;;;28.90;15.77;;;1.30;99.40;;;0.88;63.09;94883.94;5123327;27;20773;-62
2024/01/17 04:11:56;;;;;;;23.30;14.83;;;1.30;99.60;;;0.87;63.58;94887.47;5122579;27;20583;-63
2024/01/17 04:14:24;;;;;;;26.47;15.53;;;1.20;99.40;;;0.86;62.70;94891.81;5128536;27;20441;-66
2024/01/17 04:16:51;;;;;;;21.73;14.53;;;1.20;99.40;;;0.83;64.95;94881.59;5123020;27;20477;-65
2024/01/17 04:19:18;;;;;;;29.07;15.83;;;1.20;99.90;;;0.81;64.46;94880.03;5122976;27;20448;-66
2024/01/17 04:21:45;;;;;;;30.30;16.03;;;1.20;99.70;;;0.78;63.37;94895.72;5124206;27;20469;-66
2024/01/17 04:24:13;;;;;;;34.77;18.13;;;1.10;99.80;;;0.75;63.63;94885.53;5122500;27;20483;-66
2024/01/17 04:26:42;;;;;;;30.00;15.67;;;1.10;99.70;;;0.73;63.16;94893.38;5121564;27;20995;-62
2024/01/17 04:29:09;;;;;;;28.00;15.43;;;1.10;99.70;;;0.69;63.39;94895.28;5124494;27;20532;-66
2024/01/17 04:31:37;;;;;;;30.43;17.13;;;1.10;99.80;;;0.66;63.49;94903.19;5123698;27;20468;-65
2024/01/17 04:34:05;;;;;;;31.03;16.57;;;1.00;99.70;;;0.64;64.21;94899.84;5122169;27;20445;-62
2024/01/17 04:36:32;;;;;;;28.60;15.47;;;1.00;99.80;;;0.63;64.13;94893.00;5123943;27;20465;-65
2024/01/17 04:39:01;;;;;;;29.57;15.20;;;1.00;99.90;;;0.60;63.65;94893.16;5124717;27;20472;-62
2024/01/17 04:41:28;;;;;;;28.17;15.73;;;1.00;99.90;;;0.57;63.93;94895.06;5122509;27;20488;-62
2024/01/17 04:43:57;;;;;;;29.57;16.77;;;0.90;99.90;;;0.56;63.95;94893.38;5125690;27;20549;-63
2024/01/17 04:46:25;;;;;;;27.07;14.37;;;0.90;99.90;;;0.55;64.32;94892.56;5124355;27;20552;-66
2024/01/17 04:48:52;;;;;;;27.10;15.20;;;0.90;99.90;;;0.54;63.59;94901.22;5123484;27;20495;-62
2024/01/17 04:51:21;;;;;;;28.53;16.13;;;0.90;99.90;;;0.53;63.59;94909.94;5121848;27;20484;-65
2024/01/17 04:53:49;;;;;;;31.73;15.40;;;0.90;99.90;;;0.51;63.86;94904.84;5124002;27;20513;-67
2024/01/17 04:56:17;;;;;;;29.13;16.03;;;0.90;99.90;;;0.51;64.42;94916.91;5122652;27;20465;-66
2024/01/17 04:58:44;;;;;;;39.93;18.43;;;0.90;99.90;;;0.51;65.03;94930.72;5126772;27;20452;-62
2024/01/17 05:01:13;;;;;;;36.43;16.53;;;0.90;99.90;;;0.54;64.89;94937.47;5121393;27;20503;-65
2024/01/17 05:03:42;;;;;;;31.53;16.53;;;0.90;99.90;;;0.56;64.04;94935.66;5123010;27;20496;-65
2024/01/17 05:06:10;;;;;;;32.40;15.70;;;0.90;99.90;;;0.58;63.89;94926.06;5121347;27;20476;-65
2024/01/17 05:08:37;;;;;;;35.13;17.87;;;0.90;99.90;;;0.59;64.91;94924.28;5124000;27;20776;-62
2024/01/17 05:11:05;;;;;;;42.33;18.60;;;0.90;99.90;;;0.61;64.21;94930.25;5121231;27;20469;-66
2024/01/17 05:13:33;;;;;;;40.27;20.50;;;1.00;99.90;;;0.59;65.27;94935.50;5124030;27;20555;-66
2024/01/17 05:16:01;;;;;;;38.20;19.93;;;1.00;99.90;;;0.55;63.76;94918.44;5121649;27;20472;-66
2024/01/17 05:18:30;;;;;;;45.17;19.87;;;0.90;99.90;;;0.51;64.97;94929.84;5126372;27;20480;-66
2024/01/17 05:20:57;;;;;;;33.10;19.30;;;0.80;99.90;;;0.49;64.75;94939.47;5126114;27;20473;-63
2024/01/17 05:23:25;;;;;;;31.33;18.93;;;0.80;99.90;;;0.55;64.96;94923.63;5123634;27;20515;-62
2024/01/17 05:25:52;;;;;;;35.57;19.80;;;0.90;99.90;;;0.61;65.20;94918.13;5123227;27;20479;-65
2024/01/17 05:28:20;;;;;;;34.63;19.47;;;0.90;99.90;;;0.68;64.79;94918.66;5126008;27;20461;-62
2024/01/17 05:30:48;;;;;;;43.00;21.20;;;1.00;99.90;;;0.73;65.19;94913.22;5122432;27;21071;-66
2024/01/17 05:33:16;;;;;;;38.07;20.63;;;1.00;99.90;;;0.78;64.84;94906.09;5122502;27;20483;-66
2024/01/17 05:35:45;;;;;;;37.07;22.03;;;1.10;99.90;;;0.81;64.40;94911.09;5121727;27;20460;-65
2024/01/17 05:38:13;;;;;;;36.50;21.43;;;1.10;99.90;;;0.84;65.17;94913.53;5119635;27;20497;-61
2024/01/17 05:40:40;;;;;;;45.03;22.60;;;1.20;99.90;;;0.87;65.56;94919.38;5122161;27;20472;-65
2024/01/17 05:43:10;;;;;;;38.47;21.37;;;1.20;99.90;;;0.91;65.31;94925.22;5125690;27;20987;-65
2024/01/17 05:45:37;;;;;;;46.27;22.20;;;1.20;99.90;;;0.97;65.39;94935.25;5121019;27;20505;-63
2024/01/17 05:48:05;;;;;;;38.90;22.07;;;1.30;99.90;;;1.05;64.39;94921.91;5123657;27;20537;-65
2024/01/17 05:50:33;;;;;;;43.57;23.60;;;1.30;99.90;;;1.13;64.47;94924.09;5119284;27;20807;-62
2024/01/17 05:53:02;;;;;;;50.57;26.87;;;1.40;99.90;;;1.20;64.55;94920.25;5121592;27;20563;-62
2024/01/17 05:55:30;;;;;;;43.83;23.57;;;1.50;99.90;;;1.29;64.06;94924.13;5117467;27;20465;-62
2024/01/17 05:57:58;;;;;;;44.57;20.10;;;1.60;99.90;;;1.33;64.02;94921.25;5121797;27;20972;-62
2024/01/17 06:00:26;;;;;;;39.97;21.40;;;1.60;99.90;;;1.39;64.47;94910.56;5123466;27;20465;-66
2024/01/17 06:02:54;;;;;;;43.13;22.23;;;1.70;99.90;;;1.40;63.90;94901.88;5126962;27;20484;-64
2024/01/17 06:05:22;;;;;;;42.43;22.43;;;1.80;99.90;;;1.47;63.92;94888.59;5122144;27;20572;-66
2024/01/17 06:07:50;;;;;;;38.53;22.33;;;1.80;99.90;;;1.51;64.47;94892.69;5119554;27;20449;-67
2024/01/17 06:10:19;;;;;;;41.33;23.00;;;1.80;99.90;;;1.54;63.19;94908.06;5122199;27;20465;-65
2024/01/17 06:12:46;;;;;;;58.50;23.87;;;1.80;99.90;;;1.60;63.55;94916.34;5119503;27;20449;-61
2024/01/17 06:15:17;;;;;;;45.07;24.17;;;1.90;99.90;;;1.66;64.06;94920.38;5117589;27;20480;-62
2024/01/17 06:17:45;;;;;;;42.97;23.77;;;1.90;99.90;;;1.70;63.13;94921.84;5119145;27;20486;-65
2024/01/17 06:20:13;;;;;;;39.70;23.67;;;2.00;99.90;;;1.75;63.47;94917.25;5122362;27;20471;-63
2024/01/17 06:22:41;;;;;;;43.17;22.87;;;2.00;99.90;;;1.77;63.02;94910.22;5118644;27;20812;-63
2024/01/17 06:25:09;;;;;;;43.47;24.90;;;2.10;99.90;;;1.81;63.19;94910.88;5122889;27;20963;-65
2024/01/17 06:27:38;;;;;;;49.23;23.70;;;2.10;99.90;;;1.82;63.21;94933.31;5120192;27;20816;-63
2024/01/17 06:30:07;;;;;;;49.43;23.00;;;2.10;99.90;;;1.88;63.45;94929.53;5122387;27;20464;-65
2024/01/17 06:32:35;;;;;;;46.70;26.10;;;2.20;99.90;;;2.02;63.01;94939.16;5119473;27;20442;-66
2024/01/17 06:35:03;;;;;;;44.37;24.97;;;2.30;99.90;;;2.37;63.60;94929.34;5122072;27;20474;-63
2024/01/17 06:37:31;;;;;;;43.33;24.70;;;2.60;99.90;;;2.92;62.78;94940.00;5119744;27;20449;-66
2024/01/17 06:39:58;;;;;;;44.30;24.40;;;3.00;99.90;;;3.32;61.96;94922.00;5121762;27;20470;-61
2024/01/17 06:42:26;;;;;;;49.70;27.80;;;3.40;99.60;;;3.63;61.09;94920.09;5119169;27;20502;-63
2024/01/17 06:44:55;;;;;;;56.67;26.43;;;3.80;98.80;;;4.08;60.69;94931.94;5118902;27;20516;-61
2024/01/17 06:47:22;;;;;;;50.63;26.80;;;4.20;98.70;;;4.64;60.05;94936.13;5123202;27;20460;-62
2024/01/17 06:49:50;;;;;;;56.40;27.03;;;4.80;98.30;;;5.25;59.18;94928.53;5119435;27;20448;-62
2024/01/17 06:52:18;;;;;;;54.97;30.23;;;5.40;97.50;;;5.77;58.11;94923.22;5121914;27;20487;-63
2024/01/17 06:54:46;;;;;;;52.00;27.90;;;6.00;96.50;;;6.16;53.57;94913.47;5124637;27;20957;-66
2024/01/17 06:57:13;;;;;;;54.63;29.40;;;6.40;92.70;;;6.48;55.99;94913.72;5121122;27;20472;-62
2024/01/17 06:59:41;;;;;;;55.27;29.20;;;6.70;94.20;;;6.61;55.18;94913.63;5121586;27;20520;-63
2024/01/17 07:02:10;;;;;;;52.77;27.80;;;6.80;93.60;;;6.65;54.55;94915.06;5118737;27;20477;-63
2024/01/17 07:04:40;;;;;;;59.00;28.00;;;6.90;93.00;;;6.79;53.27;94907.03;5120377;28;20518;-62
2024/01/17 07:07:08;;;;;;;58.43;30.00;;;7.10;91.00;;;7.18;54.84;94904.09;5120838;28;20611;-62
2024/01/17 07:09:35;;;;;;;53.40;29.50;;;7.40;92.70;;;7.69;54.18;94895.75;5121604;28;20467;-63
2024/01/17 07:12:03;;;;;;;53.83;27.30;;;7.80;92.20;;;8.30;53.60;94893.56;5119867;28;20481;-66
2024/01/17 07:14:32;;;;;;;52.93;27.37;;;8.40;92.10;;;8.91;50.94;94891.13;5122500;28;20539;-62
2024/01/17 07:16:59;;;;;;;46.43;26.73;;;9.10;88.30;;;9.41;51.29;94911.41;5119546;28;20465;-62
2024/01/17 07:19:28;;;;;;;44.57;25.00;;;9.60;89.80;;;9.84;49.66;94927.88;5120773;28;20467;-61
2024/01/17 07:21:56;;;;;;;49.90;26.00;;;10.10;84.30;;;10.21;50.75;94929.91;5119289;28;20475;-66
2024/01/17 07:24:23;;;;;;;47.70;28.57;;;10.40;86.60;;;10.21;48.47;94940.41;5120631;28;20521;-63
2024/01/17 07:26:51;;;;;;;57.80;30.43;;;10.50;80.30;;;10.04;48.78;94929.56;5122829;27;20473;-62
2024/01/17 07:29:18;;;;;;;59.53;28.23;;;10.50;79.80;;;9.96;46.73;94931.19;5124702;27;20451;-66
2024/01/17 07:31:46;;;;;;;47.73;26.97;;;10.40;76.10;;;9.73;47.90;94925.31;5121925;27;20521;-63
2024/01/17 07:34:13;;;;;;;40.60;24.27;;;10.20;77.00;;;9.37;46.43;94938.84;5125098;27;20563;-63
2024/01/17 07:36:42;;;;;;;43.93;24.20;;;9.90;74.30;;;8.94;48.43;94940.72;5125723;27;20473;-66
2024/01/17 07:39:14;;;;;;;41.83;25.20;;;9.40;77.30;;;8.65;48.30;94929.19;5124856;27;20477;-66
2024/01/17 07:41:41;;;;;;;50.87;24.80;;;9.10;77.40;;;8.31;50.01;94937.16;5131475;27;20995;-63
2024/01/17 07:44:09;;;;;;;44.23;23.73;;;8.70;79.80;;;7.99;48.91;94940.56;5125569;27;20456;-63
2024/01/17 07:46:36;;;;;;;51.80;24.30;;;8.40;78.70;;;7.62;50.61;94940.84;5124234;27;20507;-62
2024/01/17 07:49:04;;;;;;;41.70;24.23;;;8.00;80.50;;;7.25;49.85;94928.00;5124035;27;20461;-66
2024/01/17 07:51:32;;;;;;;43.63;23.37;;;7.60;79.70;;;6.89;51.49;94917.59;5123943;27;21076;-66
2024/01/17 07:54:02;;;;;;;39.83;23.70;;;7.20;82.30;;;6.59;52.00;94912.91;5123367;27;20945;-63
2024/01/17 07:56:30;;;;;;;38.93;21.97;;;6.90;83.10;;;6.35;52.57;94918.16;5122928;27;20468;-62
2024/01/17 07:58:58;;;;;;;37.90;21.70;;;6.60;84.50;;;6.08;52.38;94922.69;5123855;27;20449;-65
2024/01/17 08:01:25;;;;;;;35.43;19.97;;;6.40;83.50;;;5.87;52.91;94921.59;5123132;27;20467;-66
2024/01/17 08:03:52;;;;;;;46.67;20.73;;;6.20;85.40;;;5.66;53.69;94916.97;5122378;27;20566;-66
2024/01/17 08:06:20;;;;;;;47.87;22.60;;;5.90;86.30;;;5.52;53.66;94927.56;5123462;27;20487;-66
2024/01/17 08:08:48;;;;;;;44.67;21.87;;;5.80;87.50;;;5.42;53.88;94936.94;5121784;27;20456;-62
2024/01/17 08:11:17;;;;;;;41.33;20.40;;;5.60;88.10;;;5.30;54.19;94917.75;5124614;27;20472;-63
2024/01/17 08:13:44;;;;;;;34.27;18.87;;;5.60;88.50;;;5.17;54.52;94920.38;5123403;27;20451;-62
2024/01/17 08:16:11;;;;;;;37.37;20.00;;;5.40;89.10;;;5.05;54.71;94947.28;5123452;27;20465;-65
2024/01/17 08:18:39;;;;;;;38.27;20.03;;;5.30;89.50;;;4.94;55.11;94951.50;5122668;27;20451;-62
2024/01/17 08:21:07;;;;;;;36.30;20.67;;;5.20;90.20;;;4.89;55.00;94950.94;5123077;27;20464;-66
2024/01/17 08:23:34;;;;;;;45.70;21.33;;;5.10;90.30;;;4.84;55.15;94935.63;5123212;27;20448;-65
2024/01/17 08:26:02;;;;;;;43.57;22.60;;;5.10;90.70;;;4.81;55.52;94919.38;5127194;27;20939;-65
2024/01/17 08:28:31;;;;;;;43.63;20.73;;;5.00;91.00;;;4.81;55.75;94929.78;5128897;27;20826;-65
2024/01/17 08:30:59;;;;;;;36.13;20.87;;;5.00;91.20;;;4.80;55.60;94931.56;5123805;27;20607;-65
2024/01/17 08:33:26;;;;;;;41.33;20.97;;;5.00;91.40;;;4.80;55.77;94956.78;5121734;27;20452;-65
2024/01/17 08:35:54;;;;;;;48.67;26.27;;;5.00;91.50;;;4.78;55.63;94984.72;5124610;27;21000;-65
2024/01/17 08:38:21;;;;;;;35.23;22.60;;;5.00;91.60;;;4.72;55.76;94966.88;5122249;27;20445;-63
2024/01/17 08:40:49;;;;;;;36.00;17.47;;;5.00;91.70;;;4.66;56.47;94955.94;5123094;27;20465;-63
2024/01/17 08:43:16;;;;;;;28.50;18.77;;;4.90;91.80;;;4.61;56.08;94950.19;5122420;27;20766;-61
2024/01/17 08:45:45;;;;;;;29.53;17.70;;;4.90;92.30;;;4.58;56.34;94966.00;5124352;27;20990;-66
2024/01/17 08:48:13;;;;;;;34.40;17.17;;;4.80;92.30;;;4.55;56.56;94961.00;5122508;27;20531;-65
2024/01/17 08:50:40;;;;;;;23.33;15.83;;;4.80;92.40;;;4.49;56.88;94957.06;5122399;27;20472;-62
2024/01/17 08:53:09;;;;;;;22.93;14.60;;;4.70;92.60;;;4.46;56.78;94951.19;5122118;27;20516;-62
2024/01/17 08:55:36;;;;;;;28.23;16.67;;;4.70;92.70;;;4.46;56.93;94935.56;5122832;27;20794;-65
2024/01/17 08:58:04;;;;;;;32.93;16.70;;;4.70;92.70;;;4.45;56.92;94947.75;5122550;27;20500;-62
2024/01/17 09:00:31;;;;;;;23.73;14.73;;;4.70;92.80;;;4.47;56.61;94952.88;5121875;27;20530;-62
2024/01/17 09:03:00;;;;;;;28.87;16.87;;;4.70;92.90;;;4.47;57.10;94947.66;5120579;27;20452;-63
2024/01/17 09:05:27;;;;;;;22.67;16.20;;;4.70;93.20;;;4.47;57.15;94942.44;5122536;27;20499;-62
2024/01/17 09:07:55;;;;;;;29.87;15.70;;;4.70;93.30;;;4.52;57.40;94929.13;5122116;27;20452;-65
2024/01/17 09:10:22;;;;;;;25.13;15.30;;;4.70;93.50;;;4.48;57.17;94902.47;5122987;27;20465;-64
2024/01/17 09:12:51;;;;;;;28.13;15.67;;;4.70;93.30;;;4.43;56.86;94912.31;5123791;27;20449;-66
2024/01/17 09:15:19;;;;;;;27.07;15.97;;;4.70;93.20;;;4.38;56.96;94935.25;5135688;27;20492;-62
2024/01/17 09:17:46;;;;;;;29.53;15.37;;;4.60;93.10;;;4.37;57.10;94954.38;5122741;27;20451;-65
2024/01/17 09:20:15;;;;;;;29.40;15.90;;;4.60;93.20;;;4.35;57.54;94928.44;5122180;27;21081;-62
2024/01/17 09:22:42;;;;;;;33.00;17.13;;;4.60;93.70;;;4.33;57.53;94899.09;5122036;27;20943;-62
2024/01/17 09:25:11;;;;;;;29.77;17.67;;;4.50;93.80;;;4.36;57.88;94893.69;5124978;27;20855;-65
2024/01/17 09:27:38;;;;;;;32.53;18.20;;;4.60;93.90;;;4.38;57.97;94885.75;5126170;27;20478;-62
2024/01/17 09:30:08;;;;;;;51.57;25.93;;;4.60;93.90;;;4.42;57.79;94910.69;5121751;27;20465;-63
2024/01/17 09:32:37;;;;;;;43.37;19.87;;;4.60;94.10;;;4.45;58.14;94897.44;5120421;27;20448;-63
2024/01/17 09:35:05;;;;;;;45.17;20.27;;;4.60;94.40;;;4.48;58.09;94902.47;5121756;27;20530;-66
2024/01/17 09:37:36;;;;;;;37.03;19.67;;;4.60;94.40;;;4.50;57.57;94890.16;5120905;27;20905;-66
2024/01/17 09:40:05;;;;;;;54.73;22.53;;;4.70;94.20;;;4.51;57.50;94884.03;5123008;27;20576;-65
2024/01/17 09:42:32;;;;;;;52.83;20.40;;;4.70;94.20;;;4.53;57.23;94884.75;5120444;27;20517;-63
2024/01/17 09:45:00;;;;;;;42.87;22.90;;;4.70;94.00;;;4.60;57.57;94893.81;5122921;27;20444;-64
2024/01/17 09:47:28;;;;;;;41.30;19.60;;;4.80;94.40;;;4.69;57.66;94873.28;5120793;27;20449;-62
2024/01/17 09:49:55;;;;;;;41.27;19.77;;;4.90;94.10;;;4.76;57.06;94879.75;5123301;27;20452;-63
2024/01/17 09:52:23;;;;;;;40.80;21.10;;;4.90;93.80;;;4.83;57.04;94873.19;5126221;27;20461;-62
2024/01/17 09:54:53;;;;;;;50.87;20.57;;;5.00;93.60;;;4.87;56.66;94885.06;5123458;27;20544;-64
2024/01/17 09:57:24;;;;;;;36.97;19.47;;;5.00;93.50;;;4.94;56.99;94875.06;5126030;27;20989;-63
2024/01/17 09:59:53;;;;;;;36.03;18.50;;;5.10;93.60;;;5.00;56.77;94867.66;5123562;27;20448;-66
2024/01/17 10:02:21;;;;;;;40.90;17.87;;;5.20;93.50;;;5.03;56.56;94859.63;5120897;27;20449;-63
2024/01/17 10:04:49;;;;;;;40.50;16.73;;;5.20;93.10;;;5.02;56.51;94852.75;5119536;27;20445;-66
2024/01/17 10:07:17;;;;;;;28.47;17.07;;;5.20;93.20;;;5.10;56.95;94862.63;5119281;27;20464;-66
2024/01/17 10:09:45;;;;;;;41.03;19.00;;;5.30;93.20;;;5.16;56.64;94866.59;5119214;27;20445;-62
2024/01/17 10:12:17;;;;;;;30.90;17.10;;;5.30;93.00;;;5.20;56.16;94868.03;5119589;27;20487;-62
2024/01/17 10:14:44;;;;;;;40.47;17.80;;;5.40;92.90;;;5.25;56.06;94870.31;5119437;27;20541;-62
2024/01/17 10:17:11;;;;;;;25.67;16.80;;;5.40;92.90;;;5.27;56.50;94864.06;5122857;27;20475;-62
2024/01/17 10:19:40;;;;;;;27.47;17.17;;;5.40;92.90;;;5.30;55.96;94843.00;5119462;27;20449;-63
2024/01/17 10:22:10;;;;;;;30.67;18.03;;;5.50;93.00;;;5.37;56.30;94844.19;5122250;27;20444;-66